sensor_id;sensor_type;location;lat;lon;timestamp;temperature;humidity
4056;DHT22;2043;52.184;8.690;2023-10-09T00:02:14;14.30;99.90
4056;DHT22;2043;52.184;8.690;2023-10-09T00:04:42;14.30;99.90
4056;DHT22;2043;52.184;8.690;2023-10-09T00:07:21;14.30;99.90
4056;DHT22;2043;52.184;8.690;2023-10-09T00:13:27;14.30;99.90
4056;DHT22;2043;52.184;8.690;2023-10-09T00:16:32;14.20;99.90
4056;DHT22;2043;52.184;8.690;2023-10-09T00:19:41;14.20;99.90
4056;DHT22;2043;52.184;8.690;2023-10-09T00:22:16;14.20;99.90
4056;DHT22;2043;52.184;8.690;2023-10-09T00:24:57;14.30;99.90
4056;DHT22;2043;52.184;8.690;2023-10-09T00:28:02;14.20;99.90
4056;DHT22;2043;52.184;8.690;2023-10-09T00:30:41;14.20;99.90
4056;DHT22;2043;52.184;8.690;2023-10-09T00:33:28;14.20;99.90
4056;DHT22;2043;52.184;8.690;2023-10-09T00:35:56;14.20;99.90
4056;DHT22;2043;52.184;8.690;2023-10-09T00:38:29;14.20;99.90
4056;DHT22;2043;52.184;8.690;2023-10-09T00:41:25;14.20;99.90
4056;DHT22;2043;52.184;8.690;2023-10-09T00:43:54;14.30;99.90
4056;DHT22;2043;52.184;8.690;2023-10-09T00:46:40;14.20;99.90
4056;DHT22;2043;52.184;8.690;2023-10-09T00:49:33;14.10;99.90
4056;DHT22;2043;52.184;8.690;2023-10-09T00:52:00;14.10;99.90
4056;DHT22;2043;52.184;8.690;2023-10-09T00:57:32;14.10;99.90
4056;DHT22;2043;52.184;8.690;2023-10-09T01:00:31;14.00;99.90
4056;DHT22;2043;52.184;8.690;2023-10-09T01:03:06;14.00;99.90
4056;DHT22;2043;52.184;8.690;2023-10-09T01:06:09;14.10;99.90
4056;DHT22;2043;52.184;8.690;2023-10-09T01:08:42;14.00;99.90
4056;DHT22;2043;52.184;8.690;2023-10-09T01:11:18;13.90;99.90
4056;DHT22;2043;52.184;8.690;2023-10-09T01:13:49;13.90;99.90
4056;DHT22;2043;52.184;8.690;2023-10-09T01:16:43;13.90;99.90
4056;DHT22;2043;52.184;8.690;2023-10-09T01:19:10;13.90;99.90
4056;DHT22;2043;52.184;8.690;2023-10-09T01:21:55;13.90;99.90
4056;DHT22;2043;52.184;8.690;2023-10-09T01:24:52;14.00;99.90
4056;DHT22;2043;52.184;8.690;2023-10-09T01:27:22;14.00;99.90
4056;DHT22;2043;52.184;8.690;2023-10-09T01:30:16;14.00;99.90
4056;DHT22;2043;52.184;8.690;2023-10-09T01:32:43;14.00;99.90
4056;DHT22;2043;52.184;8.690;2023-10-09T01:35:20;14.00;99.90
4056;DHT22;2043;52.184;8.690;2023-10-09T01:37:47;14.00;99.90
4056;DHT22;2043;52.184;8.690;2023-10-09T01:40:41;13.90;99.90
4056;DHT22;2043;52.184;8.690;2023-10-09T01:43:09;13.90;99.90
4056;DHT22;2043;52.184;8.690;2023-10-09T01:45:42;13.80;99.90
4056;DHT22;2043;52.184;8.690;2023-10-09T01:48:43;13.60;99.90
4056;DHT22;2043;52.184;8.690;2023-10-09T01:51:25;13.70;99.90
4056;DHT22;2043;52.184;8.690;2023-10-09T01:54:30;13.70;99.90
4056;DHT22;2043;52.184;8.690;2023-10-09T01:57:13;13.80;99.90
4056;DHT22;2043;52.184;8.690;2023-10-09T01:59:43;13.90;99.90
4056;DHT22;2043;52.184;8.690;2023-10-09T02:02:11;13.90;99.90
4056;DHT22;2043;52.184;8.690;2023-10-09T02:05:05;14.00;99.90
4056;DHT22;2043;52.184;8.690;2023-10-09T02:07:47;14.00;99.90
4056;DHT22;2043;52.184;8.690;2023-10-09T02:10:44;13.90;99.90
4056;DHT22;2043;52.184;8.690;2023-10-09T02:13:28;13.90;99.90
4056;DHT22;2043;52.184;8.690;2023-10-09T02:16:15;13.90;99.90
4056;DHT22;2043;52.184;8.690;2023-10-09T02:19:18;13.90;99.90
4056;DHT22;2043;52.184;8.690;2023-10-09T02:22:57;13.90;99.90
4056;DHT22;2043;52.184;8.690;2023-10-09T02:25:29;14.00;99.90
4056;DHT22;2043;52.184;8.690;2023-10-09T02:28:44;13.90;99.90
4056;DHT22;2043;52.184;8.690;2023-10-09T02:31:11;13.80;99.90
4056;DHT22;2043;52.184;8.690;2023-10-09T02:34:18;13.60;99.90
4056;DHT22;2043;52.184;8.690;2023-10-09T02:36:55;13.70;99.90
4056;DHT22;2043;52.184;8.690;2023-10-09T02:39:40;13.80;99.90
4056;DHT22;2043;52.184;8.690;2023-10-09T02:42:37;13.70;99.90
4056;DHT22;2043;52.184;8.690;2023-10-09T02:45:16;13.80;99.90
4056;DHT22;2043;52.184;8.690;2023-10-09T02:47:56;13.90;99.90
4056;DHT22;2043;52.184;8.690;2023-10-09T02:50:27;13.80;99.90
4056;DHT22;2043;52.184;8.690;2023-10-09T02:53:10;13.80;99.90
4056;DHT22;2043;52.184;8.690;2023-10-09T02:55:56;13.70;99.90
4056;DHT22;2043;52.184;8.690;2023-10-09T02:59:09;13.70;99.90
4056;DHT22;2043;52.184;8.690;2023-10-09T03:02:07;13.80;99.90
4056;DHT22;2043;52.184;8.690;2023-10-09T03:04:34;13.80;99.90
4056;DHT22;2043;52.184;8.690;2023-10-09T03:07:08;13.90;99.90
4056;DHT22;2043;52.184;8.690;2023-10-09T03:09:40;13.90;99.90
4056;DHT22;2043;52.184;8.690;2023-10-09T03:12:13;14.00;99.90
4056;DHT22;2043;52.184;8.690;2023-10-09T03:15:07;13.90;99.90
4056;DHT22;2043;52.184;8.690;2023-10-09T03:17:51;14.00;99.90
4056;DHT22;2043;52.184;8.690;2023-10-09T03:20:21;14.00;99.90
4056;DHT22;2043;52.184;8.690;2023-10-09T03:22:47;14.00;99.90
4056;DHT22;2043;52.184;8.690;2023-10-09T03:25:23;14.00;99.90
4056;DHT22;2043;52.184;8.690;2023-10-09T03:28:05;13.90;99.90
4056;DHT22;2043;52.184;8.690;2023-10-09T03:30:33;13.90;99.90
4056;DHT22;2043;52.184;8.690;2023-10-09T03:33:14;14.00;99.90
4056;DHT22;2043;52.184;8.690;2023-10-09T03:35:51;14.00;99.90
4056;DHT22;2043;52.184;8.690;2023-10-09T03:38:18;14.00;99.90
4056;DHT22;2043;52.184;8.690;2023-10-09T03:40:45;14.00;99.90
4056;DHT22;2043;52.184;8.690;2023-10-09T03:43:21;14.00;99.90
4056;DHT22;2043;52.184;8.690;2023-10-09T03:45:48;14.00;99.90
4056;DHT22;2043;52.184;8.690;2023-10-09T03:48:45;14.10;99.90
4056;DHT22;2043;52.184;8.690;2023-10-09T03:51:13;14.10;99.90
4056;DHT22;2043;52.184;8.690;2023-10-09T03:53:56;14.00;99.90
4056;DHT22;2043;52.184;8.690;2023-10-09T03:56:23;14.00;99.90
4056;DHT22;2043;52.184;8.690;2023-10-09T03:59:04;14.10;99.90
4056;DHT22;2043;52.184;8.690;2023-10-09T04:01:40;14.10;99.90
4056;DHT22;2043;52.184;8.690;2023-10-09T04:04:07;14.20;99.90
4056;DHT22;2043;52.184;8.690;2023-10-09T04:06:46;14.20;99.90
4056;DHT22;2043;52.184;8.690;2023-10-09T04:09:13;14.30;99.90
4056;DHT22;2043;52.184;8.690;2023-10-09T04:11:55;14.30;99.90
4056;DHT22;2043;52.184;8.690;2023-10-09T04:14:38;14.40;99.90
4056;DHT22;2043;52.184;8.690;2023-10-09T04:17:15;14.40;99.90
4056;DHT22;2043;52.184;8.690;2023-10-09T04:22:56;14.50;99.90
4056;DHT22;2043;52.184;8.690;2023-10-09T04:25:55;14.50;99.90
4056;DHT22;2043;52.184;8.690;2023-10-09T04:28:40;14.50;99.90
4056;DHT22;2043;52.184;8.690;2023-10-09T04:31:15;14.50;99.90
4056;DHT22;2043;52.184;8.690;2023-10-09T04:33:44;14.50;99.90
4056;DHT22;2043;52.184;8.690;2023-10-09T04:36:35;14.60;99.90
4056;DHT22;2043;52.184;8.690;2023-10-09T04:39:28;14.70;99.90
4056;DHT22;2043;52.184;8.690;2023-10-09T04:42:19;14.70;99.90
4056;DHT22;2043;52.184;8.690;2023-10-09T04:44:46;14.70;99.90
4056;DHT22;2043;52.184;8.690;2023-10-09T04:47:37;14.80;99.90
4056;DHT22;2043;52.184;8.690;2023-10-09T04:52:43;14.80;99.90
4056;DHT22;2043;52.184;8.690;2023-10-09T04:55:22;14.70;99.90
4056;DHT22;2043;52.184;8.690;2023-10-09T04:58:29;14.70;99.90
4056;DHT22;2043;52.184;8.690;2023-10-09T05:01:05;14.70;99.90
4056;DHT22;2043;52.184;8.690;2023-10-09T05:03:42;14.80;99.90
4056;DHT22;2043;52.184;8.690;2023-10-09T05:06:16;14.70;99.90
4056;DHT22;2043;52.184;8.690;2023-10-09T05:09:11;14.80;99.90
4056;DHT22;2043;52.184;8.690;2023-10-09T05:11:49;14.80;99.90
4056;DHT22;2043;52.184;8.690;2023-10-09T05:14:42;14.70;99.90
4056;DHT22;2043;52.184;8.690;2023-10-09T05:17:34;14.80;99.90
4056;DHT22;2043;52.184;8.690;2023-10-09T05:20:02;14.70;99.90
4056;DHT22;2043;52.184;8.690;2023-10-09T05:22:49;14.60;99.90
4056;DHT22;2043;52.184;8.690;2023-10-09T05:25:49;14.50;99.90
4056;DHT22;2043;52.184;8.690;2023-10-09T05:28:47;14.60;99.90
4056;DHT22;2043;52.184;8.690;2023-10-09T05:31:43;14.60;99.90
4056;DHT22;2043;52.184;8.690;2023-10-09T05:34:23;14.60;99.90
4056;DHT22;2043;52.184;8.690;2023-10-09T05:37:03;14.60;99.90
4056;DHT22;2043;52.184;8.690;2023-10-09T05:39:55;14.70;99.90
4056;DHT22;2043;52.184;8.690;2023-10-09T05:43:05;14.60;99.90
4056;DHT22;2043;52.184;8.690;2023-10-09T05:45:38;14.60;99.90
4056;DHT22;2043;52.184;8.690;2023-10-09T05:48:33;14.60;99.90
4056;DHT22;2043;52.184;8.690;2023-10-09T05:51:08;14.60;99.90
4056;DHT22;2043;52.184;8.690;2023-10-09T05:53:46;14.70;99.90
4056;DHT22;2043;52.184;8.690;2023-10-09T05:56:13;14.60;99.90
4056;DHT22;2043;52.184;8.690;2023-10-09T05:59:22;14.70;99.90
4056;DHT22;2043;52.184;8.690;2023-10-09T06:02:31;14.60;99.90
4056;DHT22;2043;52.184;8.690;2023-10-09T06:05:40;14.70;99.90
4056;DHT22;2043;52.184;8.690;2023-10-09T06:08:07;14.80;99.90
4056;DHT22;2043;52.184;8.690;2023-10-09T06:10:57;14.90;99.90
4056;DHT22;2043;52.184;8.690;2023-10-09T06:13:57;15.00;99.90
4056;DHT22;2043;52.184;8.690;2023-10-09T06:16:33;15.10;99.90
4056;DHT22;2043;52.184;8.690;2023-10-09T06:19:26;15.10;99.90
4056;DHT22;2043;52.184;8.690;2023-10-09T06:22:16;15.10;99.90
4056;DHT22;2043;52.184;8.690;2023-10-09T06:25:25;15.00;99.90
4056;DHT22;2043;52.184;8.690;2023-10-09T06:28:07;15.00;99.90
4056;DHT22;2043;52.184;8.690;2023-10-09T06:30:34;15.00;99.90
4056;DHT22;2043;52.184;8.690;2023-10-09T06:33:11;15.00;99.90
4056;DHT22;2043;52.184;8.690;2023-10-09T06:35:56;15.10;99.90
4056;DHT22;2043;52.184;8.690;2023-10-09T06:38:23;15.10;99.90
4056;DHT22;2043;52.184;8.690;2023-10-09T06:41:26;15.10;99.90
4056;DHT22;2043;52.184;8.690;2023-10-09T06:44:16;15.20;99.90
4056;DHT22;2043;52.184;8.690;2023-10-09T06:47:30;15.10;99.90
4056;DHT22;2043;52.184;8.690;2023-10-09T06:50:36;15.10;99.90
4056;DHT22;2043;52.184;8.690;2023-10-09T06:53:28;15.20;99.90
4056;DHT22;2043;52.184;8.690;2023-10-09T06:56:30;15.10;99.90
4056;DHT22;2043;52.184;8.690;2023-10-09T06:58:58;15.10;99.90
4056;DHT22;2043;52.184;8.690;2023-10-09T07:01:25;15.20;99.90
4056;DHT22;2043;52.184;8.690;2023-10-09T07:04:37;15.20;99.90
4056;DHT22;2043;52.184;8.690;2023-10-09T07:07:05;15.20;99.90
4056;DHT22;2043;52.184;8.690;2023-10-09T07:09:45;15.30;99.90
4056;DHT22;2043;52.184;8.690;2023-10-09T07:13:02;15.30;99.90
4056;DHT22;2043;52.184;8.690;2023-10-09T07:15:42;15.20;99.90
4056;DHT22;2043;52.184;8.690;2023-10-09T07:21:22;15.30;99.90
4056;DHT22;2043;52.184;8.690;2023-10-09T07:24:04;15.30;99.90
4056;DHT22;2043;52.184;8.690;2023-10-09T07:26:51;15.30;99.90
4056;DHT22;2043;52.184;8.690;2023-10-09T07:29:35;15.40;99.90
4056;DHT22;2043;52.184;8.690;2023-10-09T07:32:26;15.40;99.90
4056;DHT22;2043;52.184;8.690;2023-10-09T07:35:14;15.40;99.90
4056;DHT22;2043;52.184;8.690;2023-10-09T07:38:04;15.40;99.90
4056;DHT22;2043;52.184;8.690;2023-10-09T07:40:50;15.50;99.90
4056;DHT22;2043;52.184;8.690;2023-10-09T07:43:46;15.50;99.90
4056;DHT22;2043;52.184;8.690;2023-10-09T07:46:26;15.60;99.90
4056;DHT22;2043;52.184;8.690;2023-10-09T07:49:19;15.60;99.90
4056;DHT22;2043;52.184;8.690;2023-10-09T07:52:03;15.50;99.90
4056;DHT22;2043;52.184;8.690;2023-10-09T07:54:32;15.40;99.90
4056;DHT22;2043;52.184;8.690;2023-10-09T07:57:05;15.50;99.90
4056;DHT22;2043;52.184;8.690;2023-10-09T07:59:47;15.50;99.90
4056;DHT22;2043;52.184;8.690;2023-10-09T08:02:30;15.50;99.90
4056;DHT22;2043;52.184;8.690;2023-10-09T08:05:12;15.60;99.90
4056;DHT22;2043;52.184;8.690;2023-10-09T08:08:05;15.50;99.90
4056;DHT22;2043;52.184;8.690;2023-10-09T08:11:14;15.50;99.90
4056;DHT22;2043;52.184;8.690;2023-10-09T08:14:33;15.60;99.90
4056;DHT22;2043;52.184;8.690;2023-10-09T08:16:59;15.60;99.90
4056;DHT22;2043;52.184;8.690;2023-10-09T08:19:51;15.50;99.90
4056;DHT22;2043;52.184;8.690;2023-10-09T08:22:43;15.50;99.90
4056;DHT22;2043;52.184;8.690;2023-10-09T08:25:16;15.60;99.90
4056;DHT22;2043;52.184;8.690;2023-10-09T08:28:33;15.60;99.90
4056;DHT22;2043;52.184;8.690;2023-10-09T08:31:30;15.70;99.90
4056;DHT22;2043;52.184;8.690;2023-10-09T08:34:15;15.60;99.90
4056;DHT22;2043;52.184;8.690;2023-10-09T08:36:57;15.60;99.90
4056;DHT22;2043;52.184;8.690;2023-10-09T08:39:24;15.60;99.90
4056;DHT22;2043;52.184;8.690;2023-10-09T08:42:02;15.70;99.90
4056;DHT22;2043;52.184;8.690;2023-10-09T08:45:10;15.70;99.90
4056;DHT22;2043;52.184;8.690;2023-10-09T08:48:18;15.70;99.90
4056;DHT22;2043;52.184;8.690;2023-10-09T08:50:51;15.70;99.90
4056;DHT22;2043;52.184;8.690;2023-10-09T08:53:32;15.70;99.90
4056;DHT22;2043;52.184;8.690;2023-10-09T08:56:03;15.70;99.90
4056;DHT22;2043;52.184;8.690;2023-10-09T08:58:37;15.80;99.90
4056;DHT22;2043;52.184;8.690;2023-10-09T09:01:21;15.70;99.90
4056;DHT22;2043;52.184;8.690;2023-10-09T09:03:58;15.80;99.90
4056;DHT22;2043;52.184;8.690;2023-10-09T09:09:57;15.90;99.90
4056;DHT22;2043;52.184;8.690;2023-10-09T09:12:43;15.90;99.90
4056;DHT22;2043;52.184;8.690;2023-10-09T09:15:30;16.00;99.90
4056;DHT22;2043;52.184;8.690;2023-10-09T09:18:09;16.00;99.90
4056;DHT22;2043;52.184;8.690;2023-10-09T09:20:37;16.10;99.90
4056;DHT22;2043;52.184;8.690;2023-10-09T09:23:30;16.20;99.90
4056;DHT22;2043;52.184;8.690;2023-10-09T09:26:07;16.20;99.90
4056;DHT22;2043;52.184;8.690;2023-10-09T09:28:52;16.20;99.90
4056;DHT22;2043;52.184;8.690;2023-10-09T09:31:35;16.30;99.90
4056;DHT22;2043;52.184;8.690;2023-10-09T09:34:12;16.30;99.90
4056;DHT22;2043;52.184;8.690;2023-10-09T09:36:58;16.40;99.90
4056;DHT22;2043;52.184;8.690;2023-10-09T09:39:26;16.40;99.90
4056;DHT22;2043;52.184;8.690;2023-10-09T09:42:21;16.30;99.90
4056;DHT22;2043;52.184;8.690;2023-10-09T09:45:10;16.40;99.90
4056;DHT22;2043;52.184;8.690;2023-10-09T09:47:43;16.30;99.90
4056;DHT22;2043;52.184;8.690;2023-10-09T09:50:48;16.40;99.90
4056;DHT22;2043;52.184;8.690;2023-10-09T09:53:21;16.50;99.90
4056;DHT22;2043;52.184;8.690;2023-10-09T09:55:56;16.50;99.90
4056;DHT22;2043;52.184;8.690;2023-10-09T09:58:50;16.50;99.90
4056;DHT22;2043;52.184;8.690;2023-10-09T10:01:29;16.50;99.90
4056;DHT22;2043;52.184;8.690;2023-10-09T10:04:30;16.50;99.90
4056;DHT22;2043;52.184;8.690;2023-10-09T10:07:12;16.40;99.90
4056;DHT22;2043;52.184;8.690;2023-10-09T10:09:56;16.30;99.90
4056;DHT22;2043;52.184;8.690;2023-10-09T10:12:52;16.30;99.90
4056;DHT22;2043;52.184;8.690;2023-10-09T10:19:12;16.40;99.90
4056;DHT22;2043;52.184;8.690;2023-10-09T10:22:26;16.40;99.90
4056;DHT22;2043;52.184;8.690;2023-10-09T10:25:04;16.40;99.90
4056;DHT22;2043;52.184;8.690;2023-10-09T10:28:26;16.50;99.90
4056;DHT22;2043;52.184;8.690;2023-10-09T10:31:06;16.50;99.90
4056;DHT22;2043;52.184;8.690;2023-10-09T10:36:39;16.60;99.90
4056;DHT22;2043;52.184;8.690;2023-10-09T10:39:23;16.70;99.90
4056;DHT22;2043;52.184;8.690;2023-10-09T10:42:09;16.60;99.90
4056;DHT22;2043;52.184;8.690;2023-10-09T10:45:32;16.60;99.90
4056;DHT22;2043;52.184;8.690;2023-10-09T10:48:08;16.60;99.90
4056;DHT22;2043;52.184;8.690;2023-10-09T10:50:39;16.60;99.90
4056;DHT22;2043;52.184;8.690;2023-10-09T10:53:11;16.60;99.90
4056;DHT22;2043;52.184;8.690;2023-10-09T10:56:04;16.50;99.90
4056;DHT22;2043;52.184;8.690;2023-10-09T10:59:13;16.50;99.90
4056;DHT22;2043;52.184;8.690;2023-10-09T11:01:40;16.40;99.90
4056;DHT22;2043;52.184;8.690;2023-10-09T11:04:58;16.40;99.90
4056;DHT22;2043;52.184;8.690;2023-10-09T11:07:47;16.40;99.90
4056;DHT22;2043;52.184;8.690;2023-10-09T11:10:25;16.30;99.90
4056;DHT22;2043;52.184;8.690;2023-10-09T11:13:28;16.30;99.90
4056;DHT22;2043;52.184;8.690;2023-10-09T11:16:12;16.20;99.90
4056;DHT22;2043;52.184;8.690;2023-10-09T11:18:58;16.10;99.90
4056;DHT22;2043;52.184;8.690;2023-10-09T11:21:39;16.10;99.90
4056;DHT22;2043;52.184;8.690;2023-10-09T11:24:50;16.20;99.90
4056;DHT22;2043;52.184;8.690;2023-10-09T11:27:43;16.10;99.90
4056;DHT22;2043;52.184;8.690;2023-10-09T11:30:43;16.20;99.90
4056;DHT22;2043;52.184;8.690;2023-10-09T11:33:13;16.30;99.90
4056;DHT22;2043;52.184;8.690;2023-10-09T11:36:02;16.40;99.90
4056;DHT22;2043;52.184;8.690;2023-10-09T11:39:04;16.60;99.90
4056;DHT22;2043;52.184;8.690;2023-10-09T11:42:08;16.60;99.90
4056;DHT22;2043;52.184;8.690;2023-10-09T11:44:42;16.60;99.90
4056;DHT22;2043;52.184;8.690;2023-10-09T11:47:40;16.50;99.90
4056;DHT22;2043;52.184;8.690;2023-10-09T11:53:49;16.70;99.90
4056;DHT22;2043;52.184;8.690;2023-10-09T11:56:23;16.70;99.90
4056;DHT22;2043;52.184;8.690;2023-10-09T11:59:10;16.70;99.90
4056;DHT22;2043;52.184;8.690;2023-10-09T12:02:01;16.70;99.90
4056;DHT22;2043;52.184;8.690;2023-10-09T12:04:37;16.60;99.90
4056;DHT22;2043;52.184;8.690;2023-10-09T12:07:28;16.70;99.90
4056;DHT22;2043;52.184;8.690;2023-10-09T12:09:59;16.70;99.90
4056;DHT22;2043;52.184;8.690;2023-10-09T12:12:31;16.80;99.90
4056;DHT22;2043;52.184;8.690;2023-10-09T12:15:01;16.80;99.90
4056;DHT22;2043;52.184;8.690;2023-10-09T12:17:48;16.70;99.90
4056;DHT22;2043;52.184;8.690;2023-10-09T12:20:16;16.80;99.90
4056;DHT22;2043;52.184;8.690;2023-10-09T12:23:22;16.80;99.90
4056;DHT22;2043;52.184;8.690;2023-10-09T12:25:50;16.90;99.90
4056;DHT22;2043;52.184;8.690;2023-10-09T12:28:23;16.90;99.90
4056;DHT22;2043;52.184;8.690;2023-10-09T12:30:53;17.00;99.90
4056;DHT22;2043;52.184;8.690;2023-10-09T12:33:21;16.90;99.90
4056;DHT22;2043;52.184;8.690;2023-10-09T12:36:05;16.90;99.90
4056;DHT22;2043;52.184;8.690;2023-10-09T12:38:38;16.90;99.90
4056;DHT22;2043;52.184;8.690;2023-10-09T12:41:15;16.90;99.90
4056;DHT22;2043;52.184;8.690;2023-10-09T12:44:04;16.90;99.90
4056;DHT22;2043;52.184;8.690;2023-10-09T12:46:37;17.00;99.90
4056;DHT22;2043;52.184;8.690;2023-10-09T12:49:11;17.00;99.90
4056;DHT22;2043;52.184;8.690;2023-10-09T12:51:40;16.90;99.90
4056;DHT22;2043;52.184;8.690;2023-10-09T12:54:13;16.90;99.90
4056;DHT22;2043;52.184;8.690;2023-10-09T12:56:41;17.00;99.90
4056;DHT22;2043;52.184;8.690;2023-10-09T12:59:14;17.00;99.90
4056;DHT22;2043;52.184;8.690;2023-10-09T13:01:42;17.00;99.90
4056;DHT22;2043;52.184;8.690;2023-10-09T13:04:19;16.90;99.90
4056;DHT22;2043;52.184;8.690;2023-10-09T13:06:54;17.00;99.90
4056;DHT22;2043;52.184;8.690;2023-10-09T13:09:52;17.00;99.90
4056;DHT22;2043;52.184;8.690;2023-10-09T13:12:40;17.00;99.90
4056;DHT22;2043;52.184;8.690;2023-10-09T13:15:10;17.00;99.90
4056;DHT22;2043;52.184;8.690;2023-10-09T13:17:50;17.10;99.90
4056;DHT22;2043;52.184;8.690;2023-10-09T13:20:20;17.10;99.90
4056;DHT22;2043;52.184;8.690;2023-10-09T13:22:48;17.10;99.90
4056;DHT22;2043;52.184;8.690;2023-10-09T13:25:16;17.10;99.90
4056;DHT22;2043;52.184;8.690;2023-10-09T13:28:00;17.10;99.90
4056;DHT22;2043;52.184;8.690;2023-10-09T13:30:38;17.20;99.90
4056;DHT22;2043;52.184;8.690;2023-10-09T13:35:56;17.20;99.90
4056;DHT22;2043;52.184;8.690;2023-10-09T13:38:35;17.20;99.90
4056;DHT22;2043;52.184;8.690;2023-10-09T13:41:21;17.10;99.90
4056;DHT22;2043;52.184;8.690;2023-10-09T13:43:54;17.10;99.90
4056;DHT22;2043;52.184;8.690;2023-10-09T13:52:30;17.20;99.90
4056;DHT22;2043;52.184;8.690;2023-10-09T13:54:58;17.10;99.90
4056;DHT22;2043;52.184;8.690;2023-10-09T13:57:36;17.10;99.90
4056;DHT22;2043;52.184;8.690;2023-10-09T14:00:09;17.20;99.90
4056;DHT22;2043;52.184;8.690;2023-10-09T14:02:41;17.20;99.90
4056;DHT22;2043;52.184;8.690;2023-10-09T14:05:14;17.30;99.90
4056;DHT22;2043;52.184;8.690;2023-10-09T14:07:50;17.40;99.90
4056;DHT22;2043;52.184;8.690;2023-10-09T14:10:20;17.50;99.90
4056;DHT22;2043;52.184;8.690;2023-10-09T14:13:07;17.50;99.90
4056;DHT22;2043;52.184;8.690;2023-10-09T14:16:03;17.40;99.90
4056;DHT22;2043;52.184;8.690;2023-10-09T14:18:36;17.40;99.90
4056;DHT22;2043;52.184;8.690;2023-10-09T14:21:05;17.40;99.90
4056;DHT22;2043;52.184;8.690;2023-10-09T14:23:57;17.60;99.90
4056;DHT22;2043;52.184;8.690;2023-10-09T14:26:30;17.70;99.90
4056;DHT22;2043;52.184;8.690;2023-10-09T14:29:22;17.70;99.90
4056;DHT22;2043;52.184;8.690;2023-10-09T14:32:00;17.70;99.90
4056;DHT22;2043;52.184;8.690;2023-10-09T14:34:27;17.70;99.90
4056;DHT22;2043;52.184;8.690;2023-10-09T14:37:06;17.70;99.90
4056;DHT22;2043;52.184;8.690;2023-10-09T14:39:39;17.70;99.90
4056;DHT22;2043;52.184;8.690;2023-10-09T14:42:06;17.60;99.90
4056;DHT22;2043;52.184;8.690;2023-10-09T14:44:48;17.60;99.90
4056;DHT22;2043;52.184;8.690;2023-10-09T14:47:22;17.70;99.90
4056;DHT22;2043;52.184;8.690;2023-10-09T14:49:58;17.60;99.90
4056;DHT22;2043;52.184;8.690;2023-10-09T14:52:31;17.60;99.90
4056;DHT22;2043;52.184;8.690;2023-10-09T14:55:05;17.60;99.90
4056;DHT22;2043;52.184;8.690;2023-10-09T14:57:32;17.60;99.90
4056;DHT22;2043;52.184;8.690;2023-10-09T15:00:01;17.60;99.90
4056;DHT22;2043;52.184;8.690;2023-10-09T15:02:58;17.60;99.90
4056;DHT22;2043;52.184;8.690;2023-10-09T15:05:34;17.60;99.90
4056;DHT22;2043;52.184;8.690;2023-10-09T15:08:01;17.60;99.90
4056;DHT22;2043;52.184;8.690;2023-10-09T15:10:27;17.70;99.90
4056;DHT22;2043;52.184;8.690;2023-10-09T15:13:02;17.70;99.90
4056;DHT22;2043;52.184;8.690;2023-10-09T15:15:40;17.80;99.90
4056;DHT22;2043;52.184;8.690;2023-10-09T15:18:16;17.70;99.90
4056;DHT22;2043;52.184;8.690;2023-10-09T15:20:46;17.70;99.90
4056;DHT22;2043;52.184;8.690;2023-10-09T15:23:16;17.70;99.90
4056;DHT22;2043;52.184;8.690;2023-10-09T15:25:43;17.70;99.90
4056;DHT22;2043;52.184;8.690;2023-10-09T15:28:36;17.70;99.90
4056;DHT22;2043;52.184;8.690;2023-10-09T15:31:10;17.70;99.90
4056;DHT22;2043;52.184;8.690;2023-10-09T15:33:51;17.70;99.90
4056;DHT22;2043;52.184;8.690;2023-10-09T15:36:21;17.80;99.90
4056;DHT22;2043;52.184;8.690;2023-10-09T15:38:52;17.70;99.90
4056;DHT22;2043;52.184;8.690;2023-10-09T15:41:19;17.70;99.90
4056;DHT22;2043;52.184;8.690;2023-10-09T15:43:55;17.70;99.90
4056;DHT22;2043;52.184;8.690;2023-10-09T15:46:27;17.70;99.90
4056;DHT22;2043;52.184;8.690;2023-10-09T15:49:00;17.60;99.90
4056;DHT22;2043;52.184;8.690;2023-10-09T15:51:28;17.70;99.90
4056;DHT22;2043;52.184;8.690;2023-10-09T15:54:02;17.70;99.90
4056;DHT22;2043;52.184;8.690;2023-10-09T15:56:29;17.70;99.90
4056;DHT22;2043;52.184;8.690;2023-10-09T15:58:58;17.60;99.90
4056;DHT22;2043;52.184;8.690;2023-10-09T16:01:35;17.70;99.90
4056;DHT22;2043;52.184;8.690;2023-10-09T16:04:20;17.70;99.90
4056;DHT22;2043;52.184;8.690;2023-10-09T16:06:57;17.70;99.90
4056;DHT22;2043;52.184;8.690;2023-10-09T16:09:24;17.70;99.90
4056;DHT22;2043;52.184;8.690;2023-10-09T16:11:58;17.60;99.90
4056;DHT22;2043;52.184;8.690;2023-10-09T16:14:31;17.70;99.90
4056;DHT22;2043;52.184;8.690;2023-10-09T16:17:04;17.70;99.90
4056;DHT22;2043;52.184;8.690;2023-10-09T16:19:39;17.60;99.90
4056;DHT22;2043;52.184;8.690;2023-10-09T16:22:28;17.50;99.90
4056;DHT22;2043;52.184;8.690;2023-10-09T16:27:50;17.60;99.90
4056;DHT22;2043;52.184;8.690;2023-10-09T16:30:19;17.60;99.90
4056;DHT22;2043;52.184;8.690;2023-10-09T16:33:00;17.60;99.90
4056;DHT22;2043;52.184;8.690;2023-10-09T16:35:42;17.60;99.90
4056;DHT22;2043;52.184;8.690;2023-10-09T16:38:17;17.50;99.90
4056;DHT22;2043;52.184;8.690;2023-10-09T16:40:44;17.50;99.90
4056;DHT22;2043;52.184;8.690;2023-10-09T16:43:20;17.50;99.90
4056;DHT22;2043;52.184;8.690;2023-10-09T16:45:54;17.50;99.90
4056;DHT22;2043;52.184;8.690;2023-10-09T16:48:52;17.50;99.90
4056;DHT22;2043;52.184;8.690;2023-10-09T16:51:52;17.50;99.90
4056;DHT22;2043;52.184;8.690;2023-10-09T16:54:30;17.40;99.90
4056;DHT22;2043;52.184;8.690;2023-10-09T16:57:03;17.40;99.90
4056;DHT22;2043;52.184;8.690;2023-10-09T16:59:35;17.50;99.90
4056;DHT22;2043;52.184;8.690;2023-10-09T17:02:06;17.50;99.90
4056;DHT22;2043;52.184;8.690;2023-10-09T17:04:37;17.50;99.90
4056;DHT22;2043;52.184;8.690;2023-10-09T17:07:15;17.50;99.90
4056;DHT22;2043;52.184;8.690;2023-10-09T17:09:47;17.50;99.90
4056;DHT22;2043;52.184;8.690;2023-10-09T17:12:14;17.50;99.90
4056;DHT22;2043;52.184;8.690;2023-10-09T17:14:53;17.50;99.90
4056;DHT22;2043;52.184;8.690;2023-10-09T17:17:44;17.50;99.90
4056;DHT22;2043;52.184;8.690;2023-10-09T17:20:21;17.50;99.90
4056;DHT22;2043;52.184;8.690;2023-10-09T17:22:51;17.50;99.90
4056;DHT22;2043;52.184;8.690;2023-10-09T17:25:23;17.40;99.90
4056;DHT22;2043;52.184;8.690;2023-10-09T17:27:54;17.50;99.90
4056;DHT22;2043;52.184;8.690;2023-10-09T17:30:23;17.50;99.90
4056;DHT22;2043;52.184;8.690;2023-10-09T17:32:59;17.50;99.90
4056;DHT22;2043;52.184;8.690;2023-10-09T17:35:26;17.50;99.90
4056;DHT22;2043;52.184;8.690;2023-10-09T17:38:03;17.40;99.90
4056;DHT22;2043;52.184;8.690;2023-10-09T17:40:37;17.40;99.90
4056;DHT22;2043;52.184;8.690;2023-10-09T17:43:57;17.40;99.90
4056;DHT22;2043;52.184;8.690;2023-10-09T17:47:00;17.30;99.90
4056;DHT22;2043;52.184;8.690;2023-10-09T17:49:32;17.40;99.90
4056;DHT22;2043;52.184;8.690;2023-10-09T17:52:02;17.40;99.90
4056;DHT22;2043;52.184;8.690;2023-10-09T17:57:52;17.40;99.90
4056;DHT22;2043;52.184;8.690;2023-10-09T18:00:31;17.40;99.90
4056;DHT22;2043;52.184;8.690;2023-10-09T18:03:04;17.40;99.90
4056;DHT22;2043;52.184;8.690;2023-10-09T18:05:32;17.40;99.90
4056;DHT22;2043;52.184;8.690;2023-10-09T18:08:12;17.40;99.90
4056;DHT22;2043;52.184;8.690;2023-10-09T18:10:54;17.40;99.90
4056;DHT22;2043;52.184;8.690;2023-10-09T18:13:55;17.30;99.90
4056;DHT22;2043;52.184;8.690;2023-10-09T18:16:27;17.30;99.90
4056;DHT22;2043;52.184;8.690;2023-10-09T18:19:53;17.30;99.90
4056;DHT22;2043;52.184;8.690;2023-10-09T18:22:26;17.30;99.90